Back to top

Rawlins, WY weather

Rawlins Municipal Airport/Harvey Field, Rawlins, WY: 7/22/2019 13:53
Visibility10 statute milesclear sky
View 7-Day Forecast
Area Summary
Sky/CloudsSky Clear
Weather [last 24 hours]None [rain began 11:03; rain began 11:03 ended 11:44 ]
Pressure30.35 in.Hg (1028 hPa)
Dew Point37.9 °F (3.3 °C)
Relative Humidity18.9 %
Last 24-Hour Precip.0.08 in. (2.032 mm)
Reading TimePrecipitation
6-hr ending 7/22@11:530.05 in. (1.27 mm)
Temperature84.9 °F (29.4 °C)red thermometer
Reading TimeMinimum to Maximum Temperature
6-hr ending 7/22@11:5355.9 °F to 75 °F (13.3 °C to 23.9 °C)
6-hr ending 7/22@05:5355.9 °F to 63 °F (13.3 °C to 17.2 °C)
6-hr ending 7/21@23:5363 °F to 82.9 °F (17.2 °C to 28.3 °C)
6-hr ending 7/21@17:5377 °F to 84.9 °F (25 °C to 29.4 °C)
24-hr ending 7/22@00:5348.9 °F to 84.9 °F (9.4 °C to 29.4 °C)
Wind5.75 MPH (5 KT) green arrow with no specific direction
Wind FromVariable (VRB Degrees)
Rolling 24-hr Peak Wind33.4 MPH (29 KT) on 7/22@11:23
Rolling 24-hr Peak Wind FromEast/Northeast (060 Degrees)
Twilight Begins05:20Sunshine Yesterday
Sunrise05:52N/A
Sunset20:38
Twilight Ends21:10
METARKRWL 221953Z AUTO VRB05KT 10SM CLR 29/03 A3035 RMK AO2 SLP171 T02940033
Tags: